sensor_id;sensor_type;location;lat;lon;timestamp;temperature;humidity
9820;DHT22;4949;48.482;9.206;2023-06-22T00:02:47;23.40;75.20
9820;DHT22;4949;48.482;9.206;2023-06-22T00:07:48;23.30;75.50
9820;DHT22;4949;48.482;9.206;2023-06-22T00:12:48;23.30;75.30
9820;DHT22;4949;48.482;9.206;2023-06-22T00:17:51;23.10;75.90
9820;DHT22;4949;48.482;9.206;2023-06-22T00:22:55;23.00;76.40
9820;DHT22;4949;48.482;9.206;2023-06-22T00:27:56;22.90;77.40
9820;DHT22;4949;48.482;9.206;2023-06-22T00:33:00;22.70;77.50
9820;DHT22;4949;48.482;9.206;2023-06-22T00:38:03;22.60;78.00
9820;DHT22;4949;48.482;9.206;2023-06-22T00:43:05;22.60;78.00
9820;DHT22;4949;48.482;9.206;2023-06-22T00:48:07;22.60;78.40
9820;DHT22;4949;48.482;9.206;2023-06-22T00:53:09;22.50;78.80
9820;DHT22;4949;48.482;9.206;2023-06-22T00:58:10;22.50;78.80
9820;DHT22;4949;48.482;9.206;2023-06-22T01:03:11;22.40;79.30
9820;DHT22;4949;48.482;9.206;2023-06-22T01:09:29;22.40;79.80
9820;DHT22;4949;48.482;9.206;2023-06-22T01:14:31;22.20;79.90
9820;DHT22;4949;48.482;9.206;2023-06-22T01:19:46;22.20;80.30
9820;DHT22;4949;48.482;9.206;2023-06-22T01:25:20;22.00;80.80
9820;DHT22;4949;48.482;9.206;2023-06-22T01:30:28;21.90;81.30
9820;DHT22;4949;48.482;9.206;2023-06-22T01:35:30;21.90;81.70
9820;DHT22;4949;48.482;9.206;2023-06-22T01:40:33;21.80;81.20
9820;DHT22;4949;48.482;9.206;2023-06-22T01:45:34;21.70;81.90
9820;DHT22;4949;48.482;9.206;2023-06-22T01:50:35;21.60;82.20
9820;DHT22;4949;48.482;9.206;2023-06-22T01:55:36;21.70;81.20
9820;DHT22;4949;48.482;9.206;2023-06-22T02:00:40;21.50;82.40
9820;DHT22;4949;48.482;9.206;2023-06-22T02:05:58;21.40;82.60
9820;DHT22;4949;48.482;9.206;2023-06-22T02:11:03;21.40;82.90
9820;DHT22;4949;48.482;9.206;2023-06-22T02:16:06;21.40;83.30
9820;DHT22;4949;48.482;9.206;2023-06-22T02:21:06;21.40;82.60
9820;DHT22;4949;48.482;9.206;2023-06-22T02:26:07;21.30;83.30
9820;DHT22;4949;48.482;9.206;2023-06-22T02:31:08;21.20;83.90
9820;DHT22;4949;48.482;9.206;2023-06-22T02:36:09;21.20;84.10
9820;DHT22;4949;48.482;9.206;2023-06-22T02:41:14;21.00;84.50
9820;DHT22;4949;48.482;9.206;2023-06-22T02:46:20;21.00;84.80
9820;DHT22;4949;48.482;9.206;2023-06-22T02:51:21;20.90;84.80
9820;DHT22;4949;48.482;9.206;2023-06-22T02:56:23;20.80;84.80
9820;DHT22;4949;48.482;9.206;2023-06-22T03:01:27;20.80;84.90
9820;DHT22;4949;48.482;9.206;2023-06-22T03:06:30;20.80;85.60
9820;DHT22;4949;48.482;9.206;2023-06-22T03:11:34;20.80;84.50
9820;DHT22;4949;48.482;9.206;2023-06-22T03:16:35;20.70;84.50
9820;DHT22;4949;48.482;9.206;2023-06-22T03:21:38;20.70;84.50
9820;DHT22;4949;48.482;9.206;2023-06-22T03:26:38;20.80;84.40
9820;DHT22;4949;48.482;9.206;2023-06-22T03:31:39;20.70;84.50
9820;DHT22;4949;48.482;9.206;2023-06-22T03:36:40;20.70;85.00
9820;DHT22;4949;48.482;9.206;2023-06-22T03:41:41;20.60;84.70
9820;DHT22;4949;48.482;9.206;2023-06-22T03:46:41;20.60;84.70
9820;DHT22;4949;48.482;9.206;2023-06-22T03:51:42;20.60;85.30
9820;DHT22;4949;48.482;9.206;2023-06-22T03:56:43;20.60;85.00
9820;DHT22;4949;48.482;9.206;2023-06-22T04:01:43;20.60;85.00
9820;DHT22;4949;48.482;9.206;2023-06-22T04:06:45;20.50;85.10
9820;DHT22;4949;48.482;9.206;2023-06-22T04:11:45;20.50;85.10
9820;DHT22;4949;48.482;9.206;2023-06-22T04:16:46;20.50;86.30
9820;DHT22;4949;48.482;9.206;2023-06-22T04:21:49;20.50;85.80
9820;DHT22;4949;48.482;9.206;2023-06-22T04:26:50;20.50;85.60
9820;DHT22;4949;48.482;9.206;2023-06-22T04:31:55;20.60;85.10
9820;DHT22;4949;48.482;9.206;2023-06-22T04:36:58;20.70;85.00
9820;DHT22;4949;48.482;9.206;2023-06-22T04:41:59;20.70;85.20
9820;DHT22;4949;48.482;9.206;2023-06-22T04:47:01;20.70;85.00
9820;DHT22;4949;48.482;9.206;2023-06-22T04:52:05;20.70;85.20
9820;DHT22;4949;48.482;9.206;2023-06-22T04:57:08;20.70;85.10
9820;DHT22;4949;48.482;9.206;2023-06-22T05:02:13;20.80;84.60
9820;DHT22;4949;48.482;9.206;2023-06-22T05:07:14;20.90;84.50
9820;DHT22;4949;48.482;9.206;2023-06-22T05:12:15;21.00;83.60
9820;DHT22;4949;48.482;9.206;2023-06-22T05:17:16;21.00;83.90
9820;DHT22;4949;48.482;9.206;2023-06-22T05:22:19;21.10;84.40
9820;DHT22;4949;48.482;9.206;2023-06-22T05:27:20;21.00;84.50
9820;DHT22;4949;48.482;9.206;2023-06-22T05:32:21;21.20;84.10
9820;DHT22;4949;48.482;9.206;2023-06-22T05:37:21;21.30;83.90
9820;DHT22;4949;48.482;9.206;2023-06-22T05:42:22;21.40;83.70
9820;DHT22;4949;48.482;9.206;2023-06-22T05:47:23;21.40;83.90
9820;DHT22;4949;48.482;9.206;2023-06-22T05:52:24;21.40;84.30
9820;DHT22;4949;48.482;9.206;2023-06-22T05:57:27;21.40;85.00
9820;DHT22;4949;48.482;9.206;2023-06-22T06:02:27;21.50;84.10
9820;DHT22;4949;48.482;9.206;2023-06-22T06:07:28;21.50;84.80
9820;DHT22;4949;48.482;9.206;2023-06-22T06:12:30;21.60;84.10
9820;DHT22;4949;48.482;9.206;2023-06-22T06:17:33;21.60;84.90
9820;DHT22;4949;48.482;9.206;2023-06-22T06:22:33;21.70;83.90
9820;DHT22;4949;48.482;9.206;2023-06-22T06:27:34;21.90;83.50
9820;DHT22;4949;48.482;9.206;2023-06-22T06:32:35;22.00;83.00
9820;DHT22;4949;48.482;9.206;2023-06-22T06:37:38;22.20;82.60
9820;DHT22;4949;48.482;9.206;2023-06-22T06:42:43;22.30;81.90
9820;DHT22;4949;48.482;9.206;2023-06-22T06:47:46;22.40;81.30
9820;DHT22;4949;48.482;9.206;2023-06-22T06:52:46;22.60;80.80
9820;DHT22;4949;48.482;9.206;2023-06-22T06:57:49;22.80;79.50
9820;DHT22;4949;48.482;9.206;2023-06-22T07:02:53;22.90;78.20
9820;DHT22;4949;48.482;9.206;2023-06-22T07:07:56;23.10;77.50
9820;DHT22;4949;48.482;9.206;2023-06-22T07:12:59;23.20;77.30
9820;DHT22;4949;48.482;9.206;2023-06-22T07:18:00;23.40;76.20
9820;DHT22;4949;48.482;9.206;2023-06-22T07:23:01;23.60;75.80
9820;DHT22;4949;48.482;9.206;2023-06-22T07:28:05;23.70;75.40
9820;DHT22;4949;48.482;9.206;2023-06-22T07:33:07;23.90;75.10
9820;DHT22;4949;48.482;9.206;2023-06-22T07:38:11;24.10;74.00
9820;DHT22;4949;48.482;9.206;2023-06-22T07:43:11;24.30;73.20
9820;DHT22;4949;48.482;9.206;2023-06-22T07:48:12;24.40;72.70
9820;DHT22;4949;48.482;9.206;2023-06-22T07:53:13;24.60;72.50
9820;DHT22;4949;48.482;9.206;2023-06-22T07:58:14;24.80;72.30
9820;DHT22;4949;48.482;9.206;2023-06-22T08:03:16;24.90;71.20
9820;DHT22;4949;48.482;9.206;2023-06-22T08:08:21;25.00;71.50
9820;DHT22;4949;48.482;9.206;2023-06-22T08:13:22;25.20;70.80
9820;DHT22;4949;48.482;9.206;2023-06-22T08:18:25;25.30;69.90
9820;DHT22;4949;48.482;9.206;2023-06-22T08:23:28;25.40;69.80
9820;DHT22;4949;48.482;9.206;2023-06-22T08:28:29;25.50;69.60
9820;DHT22;4949;48.482;9.206;2023-06-22T08:33:30;25.50;69.80
9820;DHT22;4949;48.482;9.206;2023-06-22T08:38:31;25.60;69.00
9820;DHT22;4949;48.482;9.206;2023-06-22T08:43:32;25.60;69.00
9820;DHT22;4949;48.482;9.206;2023-06-22T08:48:33;25.70;68.70
9820;DHT22;4949;48.482;9.206;2023-06-22T08:53:33;25.80;68.70
9820;DHT22;4949;48.482;9.206;2023-06-22T08:58:35;26.00;68.60
9820;DHT22;4949;48.482;9.206;2023-06-22T09:03:41;26.10;68.40
9820;DHT22;4949;48.482;9.206;2023-06-22T09:08:42;26.30;68.40
9820;DHT22;4949;48.482;9.206;2023-06-22T09:13:42;26.30;68.10
9820;DHT22;4949;48.482;9.206;2023-06-22T09:18:49;26.30;68.20
9820;DHT22;4949;48.482;9.206;2023-06-22T09:23:53;26.50;67.40
9820;DHT22;4949;48.482;9.206;2023-06-22T09:28:53;26.60;67.60
9820;DHT22;4949;48.482;9.206;2023-06-22T09:33:56;26.70;66.90
9820;DHT22;4949;48.482;9.206;2023-06-22T09:38:57;27.00;66.50
9820;DHT22;4949;48.482;9.206;2023-06-22T09:44:06;27.10;65.90
9820;DHT22;4949;48.482;9.206;2023-06-22T09:49:09;27.20;65.30
9820;DHT22;4949;48.482;9.206;2023-06-22T09:54:12;27.30;65.30
9820;DHT22;4949;48.482;9.206;2023-06-22T09:59:12;27.70;64.90
9820;DHT22;4949;48.482;9.206;2023-06-22T10:04:18;27.90;63.70
9820;DHT22;4949;48.482;9.206;2023-06-22T10:09:18;28.20;62.40
9820;DHT22;4949;48.482;9.206;2023-06-22T10:14:19;28.40;61.80
9820;DHT22;4949;48.482;9.206;2023-06-22T10:19:22;28.60;61.30
9820;DHT22;4949;48.482;9.206;2023-06-22T10:24:26;28.80;60.10
9820;DHT22;4949;48.482;9.206;2023-06-22T10:29:33;29.00;59.90
9820;DHT22;4949;48.482;9.206;2023-06-22T10:34:34;29.20;59.00
9820;DHT22;4949;48.482;9.206;2023-06-22T10:39:35;29.40;59.10
9820;DHT22;4949;48.482;9.206;2023-06-22T10:44:39;29.70;57.50
9820;DHT22;4949;48.482;9.206;2023-06-22T10:49:41;29.80;57.30
9820;DHT22;4949;48.482;9.206;2023-06-22T10:54:44;30.00;57.10
9820;DHT22;4949;48.482;9.206;2023-06-22T10:59:45;30.20;56.00
9820;DHT22;4949;48.482;9.206;2023-06-22T11:04:48;30.50;56.00
9820;DHT22;4949;48.482;9.206;2023-06-22T11:09:49;30.70;55.20
9820;DHT22;4949;48.482;9.206;2023-06-22T11:14:52;30.80;54.80
9820;DHT22;4949;48.482;9.206;2023-06-22T11:19:55;31.00;53.80
9820;DHT22;4949;48.482;9.206;2023-06-22T11:24:56;31.20;53.90
9820;DHT22;4949;48.482;9.206;2023-06-22T11:29:59;31.40;53.40
9820;DHT22;4949;48.482;9.206;2023-06-22T11:34:59;31.40;52.50
9820;DHT22;4949;48.482;9.206;2023-06-22T11:40:00;31.50;52.50
9820;DHT22;4949;48.482;9.206;2023-06-22T11:45:05;31.50;52.70
9820;DHT22;4949;48.482;9.206;2023-06-22T11:50:07;31.60;51.60
9820;DHT22;4949;48.482;9.206;2023-06-22T11:55:08;31.60;52.00
9820;DHT22;4949;48.482;9.206;2023-06-22T12:00:12;31.60;52.00
9820;DHT22;4949;48.482;9.206;2023-06-22T12:05:19;31.50;52.20
9820;DHT22;4949;48.482;9.206;2023-06-22T12:10:25;31.70;52.20
9820;DHT22;4949;48.482;9.206;2023-06-22T12:15:29;31.40;53.40
9820;DHT22;4949;48.482;9.206;2023-06-22T12:20:32;31.40;53.70
9820;DHT22;4949;48.482;9.206;2023-06-22T12:25:35;31.30;53.80
9820;DHT22;4949;48.482;9.206;2023-06-22T12:30:41;31.20;54.50
9820;DHT22;4949;48.482;9.206;2023-06-22T12:35:42;30.90;55.20
9820;DHT22;4949;48.482;9.206;2023-06-22T12:40:42;30.80;55.70
9820;DHT22;4949;48.482;9.206;2023-06-22T12:45:47;30.70;56.00
9820;DHT22;4949;48.482;9.206;2023-06-22T12:50:48;30.70;56.00
9820;DHT22;4949;48.482;9.206;2023-06-22T12:55:51;30.80;55.70
9820;DHT22;4949;48.482;9.206;2023-06-22T13:00:51;30.90;55.50
9820;DHT22;4949;48.482;9.206;2023-06-22T13:05:52;30.90;55.90
9820;DHT22;4949;48.482;9.206;2023-06-22T13:10:53;31.20;55.60
9820;DHT22;4949;48.482;9.206;2023-06-22T13:15:54;31.20;55.00
9820;DHT22;4949;48.482;9.206;2023-06-22T13:20:54;31.50;54.00
9820;DHT22;4949;48.482;9.206;2023-06-22T13:25:55;31.70;53.50
9820;DHT22;4949;48.482;9.206;2023-06-22T13:30:56;32.00;53.00
9820;DHT22;4949;48.482;9.206;2023-06-22T13:35:57;32.00;51.80
9820;DHT22;4949;48.482;9.206;2023-06-22T13:40:58;31.90;51.70
9820;DHT22;4949;48.482;9.206;2023-06-22T13:45:59;31.80;51.90
9820;DHT22;4949;48.482;9.206;2023-06-22T13:51:00;32.00;52.00
9820;DHT22;4949;48.482;9.206;2023-06-22T13:56:01;32.00;51.50
9820;DHT22;4949;48.482;9.206;2023-06-22T14:01:02;31.80;51.60
9820;DHT22;4949;48.482;9.206;2023-06-22T14:06:05;31.80;52.10
9820;DHT22;4949;48.482;9.206;2023-06-22T14:11:09;31.90;51.90
9820;DHT22;4949;48.482;9.206;2023-06-22T14:16:12;31.80;51.40
9820;DHT22;4949;48.482;9.206;2023-06-22T14:21:15;32.00;51.50
9820;DHT22;4949;48.482;9.206;2023-06-22T14:26:19;31.80;51.60
9820;DHT22;4949;48.482;9.206;2023-06-22T14:31:22;31.70;51.80
9820;DHT22;4949;48.482;9.206;2023-06-22T14:36:23;31.60;51.90
9820;DHT22;4949;48.482;9.206;2023-06-22T14:41:24;31.90;52.50
9820;DHT22;4949;48.482;9.206;2023-06-22T14:46:25;31.90;52.10
9820;DHT22;4949;48.482;9.206;2023-06-22T14:51:28;32.10;52.00
9820;DHT22;4949;48.482;9.206;2023-06-22T14:56:28;32.30;51.80
9820;DHT22;4949;48.482;9.206;2023-06-22T15:01:30;32.30;51.90
9820;DHT22;4949;48.482;9.206;2023-06-22T15:06:30;32.10;52.40
9820;DHT22;4949;48.482;9.206;2023-06-22T15:11:36;32.10;52.30
9820;DHT22;4949;48.482;9.206;2023-06-22T15:16:37;32.00;52.20
9820;DHT22;4949;48.482;9.206;2023-06-22T15:21:38;32.00;51.10
9820;DHT22;4949;48.482;9.206;2023-06-22T15:26:41;32.10;50.50
9820;DHT22;4949;48.482;9.206;2023-06-22T15:31:42;32.10;50.50
9820;DHT22;4949;48.482;9.206;2023-06-22T15:36:43;31.80;49.20
9820;DHT22;4949;48.482;9.206;2023-06-22T15:41:44;31.50;43.20
9820;DHT22;4949;48.482;9.206;2023-06-22T15:46:45;31.10;42.40
9820;DHT22;4949;48.482;9.206;2023-06-22T15:51:46;31.00;42.30
9820;DHT22;4949;48.482;9.206;2023-06-22T15:56:47;30.90;41.50
9820;DHT22;4949;48.482;9.206;2023-06-22T16:01:48;30.80;42.20
9820;DHT22;4949;48.482;9.206;2023-06-22T16:06:49;30.70;43.00
9820;DHT22;4949;48.482;9.206;2023-06-22T16:11:50;30.50;43.70
9820;DHT22;4949;48.482;9.206;2023-06-22T16:16:50;30.50;44.70
9820;DHT22;4949;48.482;9.206;2023-06-22T16:21:51;30.40;45.20
9820;DHT22;4949;48.482;9.206;2023-06-22T16:26:55;30.30;46.00
9820;DHT22;4949;48.482;9.206;2023-06-22T16:31:56;30.50;44.60
9820;DHT22;4949;48.482;9.206;2023-06-22T16:36:56;30.40;44.90
9820;DHT22;4949;48.482;9.206;2023-06-22T16:41:57;30.20;46.00
9820;DHT22;4949;48.482;9.206;2023-06-22T16:47:03;30.10;46.40
9820;DHT22;4949;48.482;9.206;2023-06-22T16:52:05;30.20;46.60
9820;DHT22;4949;48.482;9.206;2023-06-22T16:57:06;30.20;46.10
9820;DHT22;4949;48.482;9.206;2023-06-22T17:02:16;30.20;45.40
9820;DHT22;4949;48.482;9.206;2023-06-22T17:07:22;30.20;45.30
9820;DHT22;4949;48.482;9.206;2023-06-22T17:12:28;30.10;45.10
9820;DHT22;4949;48.482;9.206;2023-06-22T17:17:30;30.00;44.80
9820;DHT22;4949;48.482;9.206;2023-06-22T17:22:31;29.90;44.80
9820;DHT22;4949;48.482;9.206;2023-06-22T17:27:36;29.80;44.60
9820;DHT22;4949;48.482;9.206;2023-06-22T17:32:37;29.60;45.10
9820;DHT22;4949;48.482;9.206;2023-06-22T17:37:57;29.50;46.20
9820;DHT22;4949;48.482;9.206;2023-06-22T17:43:06;29.30;47.80
9820;DHT22;4949;48.482;9.206;2023-06-22T17:48:10;29.00;49.00
9820;DHT22;4949;48.482;9.206;2023-06-22T17:53:13;28.90;48.70
9820;DHT22;4949;48.482;9.206;2023-06-22T17:58:16;28.40;48.40
9820;DHT22;4949;48.482;9.206;2023-06-22T18:03:23;28.30;47.60
9820;DHT22;4949;48.482;9.206;2023-06-22T18:08:27;28.00;46.40
9820;DHT22;4949;48.482;9.206;2023-06-22T18:13:28;27.70;44.90
9820;DHT22;4949;48.482;9.206;2023-06-22T18:18:31;27.70;44.40
9820;DHT22;4949;48.482;9.206;2023-06-22T18:23:38;27.50;46.60
9820;DHT22;4949;48.482;9.206;2023-06-22T18:28:41;27.50;48.00
9820;DHT22;4949;48.482;9.206;2023-06-22T18:33:42;27.10;50.60
9820;DHT22;4949;48.482;9.206;2023-06-22T18:38:46;26.90;51.60
9820;DHT22;4949;48.482;9.206;2023-06-22T18:43:53;26.90;51.50
9820;DHT22;4949;48.482;9.206;2023-06-22T18:48:59;26.60;53.10
9820;DHT22;4949;48.482;9.206;2023-06-22T18:54:02;26.40;53.20
9820;DHT22;4949;48.482;9.206;2023-06-22T18:59:14;26.00;54.90
9820;DHT22;4949;48.482;9.206;2023-06-22T19:04:19;25.80;55.00
9820;DHT22;4949;48.482;9.206;2023-06-22T19:09:22;25.50;55.50
9820;DHT22;4949;48.482;9.206;2023-06-22T19:14:25;25.10;56.70
9820;DHT22;4949;48.482;9.206;2023-06-22T19:19:40;25.10;56.90
9820;DHT22;4949;48.482;9.206;2023-06-22T19:24:50;25.10;56.00
9820;DHT22;4949;48.482;9.206;2023-06-22T19:30:04;25.10;54.20
9820;DHT22;4949;48.482;9.206;2023-06-22T19:35:24;25.00;53.90
9820;DHT22;4949;48.482;9.206;2023-06-22T19:40:32;25.00;53.80
9820;DHT22;4949;48.482;9.206;2023-06-22T19:45:49;24.80;54.10
9820;DHT22;4949;48.482;9.206;2023-06-22T19:51:02;24.60;54.30
9820;DHT22;4949;48.482;9.206;2023-06-22T19:56:08;24.50;54.70
9820;DHT22;4949;48.482;9.206;2023-06-22T20:01:16;24.40;54.70
9820;DHT22;4949;48.482;9.206;2023-06-22T20:06:17;24.20;54.50
9820;DHT22;4949;48.482;9.206;2023-06-22T20:11:31;24.10;54.90
9820;DHT22;4949;48.482;9.206;2023-06-22T20:16:51;23.90;56.20
9820;DHT22;4949;48.482;9.206;2023-06-22T20:22:06;23.80;57.70
9820;DHT22;4949;48.482;9.206;2023-06-22T20:27:27;23.90;58.20
9820;DHT22;4949;48.482;9.206;2023-06-22T20:32:33;23.60;59.70
9820;DHT22;4949;48.482;9.206;2023-06-22T20:37:42;23.50;60.10
9820;DHT22;4949;48.482;9.206;2023-06-22T20:43:18;23.40;60.80
9820;DHT22;4949;48.482;9.206;2023-06-22T20:48:20;23.20;62.40
9820;DHT22;4949;48.482;9.206;2023-06-22T20:53:31;22.70;65.10
9820;DHT22;4949;48.482;9.206;2023-06-22T20:58:49;22.30;66.90
9820;DHT22;4949;48.482;9.206;2023-06-22T21:04:04;22.40;67.90
9820;DHT22;4949;48.482;9.206;2023-06-22T21:09:36;22.20;69.40
9820;DHT22;4949;48.482;9.206;2023-06-22T21:14:43;22.00;69.80
9820;DHT22;4949;48.482;9.206;2023-06-22T21:19:47;21.80;71.20
9820;DHT22;4949;48.482;9.206;2023-06-22T21:25:08;21.70;70.90
9820;DHT22;4949;48.482;9.206;2023-06-22T21:30:13;21.70;71.00
9820;DHT22;4949;48.482;9.206;2023-06-22T21:35:15;21.70;70.90
9820;DHT22;4949;48.482;9.206;2023-06-22T21:40:16;21.80;71.20
9820;DHT22;4949;48.482;9.206;2023-06-22T21:45:17;21.90;69.90
9820;DHT22;4949;48.482;9.206;2023-06-22T21:50:18;21.70;70.30
9820;DHT22;4949;48.482;9.206;2023-06-22T21:55:20;21.50;71.20
9820;DHT22;4949;48.482;9.206;2023-06-22T22:00:20;21.60;70.70
9820;DHT22;4949;48.482;9.206;2023-06-22T22:05:21;21.70;70.70
9820;DHT22;4949;48.482;9.206;2023-06-22T22:10:23;21.50;71.20
9820;DHT22;4949;48.482;9.206;2023-06-22T22:15:23;21.50;71.50
9820;DHT22;4949;48.482;9.206;2023-06-22T22:20:25;21.60;71.70
9820;DHT22;4949;48.482;9.206;2023-06-22T22:25:30;21.60;71.80
9820;DHT22;4949;48.482;9.206;2023-06-22T22:30:31;21.50;72.30
9820;DHT22;4949;48.482;9.206;2023-06-22T22:35:32;21.60;72.00
9820;DHT22;4949;48.482;9.206;2023-06-22T22:40:33;21.50;72.50
9820;DHT22;4949;48.482;9.206;2023-06-22T22:45:36;21.40;73.00
9820;DHT22;4949;48.482;9.206;2023-06-22T22:50:37;21.50;73.40
9820;DHT22;4949;48.482;9.206;2023-06-22T22:55:38;21.40;73.40
9820;DHT22;4949;48.482;9.206;2023-06-22T23:00:39;21.50;73.50
9820;DHT22;4949;48.482;9.206;2023-06-22T23:05:43;21.50;73.70
9820;DHT22;4949;48.482;9.206;2023-06-22T23:10:43;21.30;75.10
9820;DHT22;4949;48.482;9.206;2023-06-22T23:15:44;21.20;75.90
9820;DHT22;4949;48.482;9.206;2023-06-22T23:20:45;21.20;77.10
9820;DHT22;4949;48.482;9.206;2023-06-22T23:25:46;21.20;77.60
9820;DHT22;4949;48.482;9.206;2023-06-22T23:30:49;21.10;79.00
9820;DHT22;4949;48.482;9.206;2023-06-22T23:35:50;21.10;79.40
9820;DHT22;4949;48.482;9.206;2023-06-22T23:40:50;21.00;80.10
9820;DHT22;4949;48.482;9.206;2023-06-22T23:45:53;20.90;80.10
9820;DHT22;4949;48.482;9.206;2023-06-22T23:50:55;20.80;80.20
9820;DHT22;4949;48.482;9.206;2023-06-22T23:56:01;20.90;79.70
